createdAt,value
2022-09-11T00:02:23.911Z,1.85
2022-09-11T00:04:52.256Z,2.08
2022-09-11T00:07:19.517Z,1.90
2022-09-11T00:09:46.893Z,2.00
2022-09-11T00:12:14.139Z,1.95
2022-09-11T00:14:41.444Z,1.77
2022-09-11T00:17:08.971Z,1.73
2022-09-11T00:19:36.917Z,1.90
2022-09-11T00:22:05.233Z,1.77
2022-09-11T00:24:32.597Z,2.03
2022-09-11T00:26:59.913Z,2.00
2022-09-11T00:29:27.313Z,2.00
2022-09-11T00:31:54.844Z,1.88
2022-09-11T00:34:22.073Z,2.20
2022-09-11T00:36:49.478Z,2.00
2022-09-11T00:39:16.762Z,2.20
2022-09-11T00:41:46.301Z,1.88
2022-09-11T00:44:17.093Z,2.13
2022-09-11T00:46:53.344Z,2.10
2022-09-11T00:49:21.067Z,2.00
2022-09-11T00:51:53.573Z,2.22
2022-09-11T00:54:23.862Z,2.30
2022-09-11T00:56:51.606Z,2.40
2022-09-11T00:59:20.933Z,2.60
2022-09-11T01:01:48.910Z,3.00
2022-09-11T01:04:16.251Z,2.83
2022-09-11T01:06:46.702Z,3.20
2022-09-11T01:09:14.683Z,2.40
2022-09-11T01:11:50.619Z,2.65
2022-09-11T01:14:36.528Z,2.30
2022-09-11T01:17:33.250Z,2.58
2022-09-11T01:20:12.393Z,2.70
2022-09-11T01:22:39.617Z,2.72
2022-09-11T01:25:09.221Z,2.40
2022-09-11T01:27:52.617Z,2.60
2022-09-11T01:30:19.923Z,2.30
2022-09-11T01:32:50.211Z,2.00
2022-09-11T01:35:32.298Z,2.40
2022-09-11T01:38:06.918Z,2.45
2022-09-11T01:40:37.323Z,2.33
2022-09-11T01:43:07.427Z,2.70
2022-09-11T01:45:37.877Z,2.63
2022-09-11T01:48:06.371Z,2.20
2022-09-11T01:50:34.398Z,2.28
2022-09-11T01:53:04.298Z,2.35
2022-09-11T01:55:42.779Z,2.40
2022-09-11T01:58:17.663Z,2.20
2022-09-11T02:00:47.548Z,2.30
2022-09-11T02:03:17.309Z,2.03
2022-09-11T02:05:54.617Z,2.05
2022-09-11T02:08:26.609Z,1.98
2022-09-11T02:10:58.260Z,1.83
2022-09-11T02:13:32.980Z,1.98
2022-09-11T02:16:05.521Z,2.17
2022-09-11T02:18:55.531Z,2.40
2022-09-11T02:21:22.832Z,2.00
2022-09-11T02:23:50.111Z,1.98
2022-09-11T02:26:18.350Z,2.00
2022-09-11T02:28:45.617Z,2.28
2022-09-11T02:31:13.115Z,2.10
2022-09-11T02:33:41.083Z,2.05
2022-09-11T02:36:17.210Z,2.40
2022-09-11T02:39:07.709Z,2.35
2022-09-11T02:41:58.275Z,2.75
2022-09-11T02:45:03.924Z,2.30
2022-09-11T02:47:45.692Z,2.58
2022-09-11T02:50:31.107Z,2.50
2022-09-11T02:53:16.431Z,2.45
2022-09-11T02:56:05.843Z,2.75
2022-09-11T02:58:36.026Z,2.38
2022-09-11T03:01:04.130Z,2.60
2022-09-11T03:03:42.372Z,2.67
2022-09-11T03:06:11.557Z,2.60
2022-09-11T03:08:38.813Z,2.75
2022-09-11T03:11:06.207Z,2.70
2022-09-11T03:13:33.631Z,3.00
2022-09-11T03:16:04.925Z,3.30
2022-09-11T03:18:33.885Z,3.00
2022-09-11T03:21:01.846Z,2.92
2022-09-11T03:23:29.227Z,3.03
2022-09-11T03:25:56.473Z,3.35
2022-09-11T03:28:24.361Z,3.10
2022-09-11T03:30:54.773Z,3.38
2022-09-11T03:33:22.522Z,3.05
2022-09-11T03:35:50.459Z,3.08
2022-09-11T03:38:18.177Z,3.10
2022-09-11T03:40:45.415Z,2.80
2022-09-11T03:43:13.272Z,3.22
2022-09-11T03:45:40.622Z,3.38
2022-09-11T03:48:08.131Z,3.10
2022-09-11T03:50:35.697Z,2.47
2022-09-11T03:53:03.032Z,2.88
2022-09-11T03:55:31.951Z,2.85
2022-09-11T03:57:59.788Z,3.03
2022-09-11T04:00:27.379Z,2.58
2022-09-11T04:02:55.770Z,2.90
2022-09-11T04:05:26.803Z,2.85
2022-09-11T04:07:55.224Z,3.03
2022-09-11T04:10:22.931Z,2.40
2022-09-11T04:12:50.153Z,2.65
2022-09-11T04:15:17.724Z,3.00
2022-09-11T04:17:45.017Z,2.63
2022-09-11T04:20:12.590Z,2.80
2022-09-11T04:22:41.124Z,2.20
2022-09-11T04:25:08.970Z,2.50
2022-09-11T04:27:36.217Z,3.08
2022-09-11T04:30:04.114Z,2.55
2022-09-11T04:32:31.338Z,2.42
2022-09-11T04:34:59.034Z,2.78
2022-09-11T04:37:26.262Z,2.70
2022-09-11T04:39:54.238Z,3.03
2022-09-11T04:42:21.519Z,3.42
2022-09-11T04:44:48.813Z,3.10
2022-09-11T04:47:16.885Z,3.50
2022-09-11T04:49:46.861Z,3.20
2022-09-11T04:52:15.800Z,3.50
2022-09-11T04:54:43.369Z,3.28
2022-09-11T04:57:10.686Z,3.20
2022-09-11T04:59:39.106Z,3.05
2022-09-11T05:02:06.534Z,3.42
2022-09-11T05:04:34.158Z,3.15
2022-09-11T05:07:02.782Z,3.33
2022-09-11T05:09:30.174Z,2.90
2022-09-11T05:11:57.475Z,3.20
2022-09-11T05:14:25.471Z,2.80
2022-09-11T05:16:53.069Z,2.72
2022-09-11T05:19:20.344Z,2.92
2022-09-11T05:21:48.238Z,2.50
2022-09-11T05:24:15.444Z,2.70
2022-09-11T05:26:43.028Z,2.75
2022-09-11T05:29:14.922Z,2.85
2022-09-11T05:31:42.639Z,2.90
2022-09-11T05:34:10.026Z,2.70
2022-09-11T05:36:37.453Z,2.75
2022-09-11T05:39:04.978Z,2.65
2022-09-11T05:41:32.738Z,2.42
2022-09-11T05:44:00.074Z,2.40
2022-09-11T05:46:27.552Z,2.78
2022-09-11T05:48:54.820Z,2.85
2022-09-11T05:51:22.592Z,2.63
2022-09-11T05:53:53.665Z,2.60
2022-09-11T05:56:21.901Z,2.15
2022-09-11T05:58:51.768Z,2.40
2022-09-11T06:01:20.346Z,2.17
2022-09-11T06:03:49.468Z,2.05
2022-09-11T06:06:17.713Z,2.25
2022-09-11T06:08:45.288Z,2.13
2022-09-11T06:11:13.946Z,2.38
2022-09-11T06:13:43.220Z,1.95
2022-09-11T06:16:18.029Z,2.08
2022-09-11T06:18:49.579Z,2.70
2022-09-11T06:21:20.367Z,2.13
2022-09-11T06:23:49.074Z,1.85
2022-09-11T06:26:17.712Z,2.10
2022-09-11T06:28:45.108Z,2.20
2022-09-11T06:31:13.384Z,1.98
2022-09-11T06:33:41.358Z,2.08
2022-09-11T06:36:10.806Z,2.00
2022-09-11T06:38:41.102Z,2.40
2022-09-11T06:41:13.235Z,2.20
2022-09-11T06:43:40.634Z,2.00
2022-09-11T06:46:14.985Z,2.38
2022-09-11T06:48:42.905Z,2.25
2022-09-11T06:51:11.638Z,2.10
2022-09-11T06:53:39.309Z,2.17
2022-09-11T06:56:09.807Z,2.17
2022-09-11T06:58:37.751Z,2.40
2022-09-11T07:01:05.844Z,2.10
2022-09-11T07:03:33.313Z,2.25
2022-09-11T07:06:01.260Z,1.85
2022-09-11T07:08:28.606Z,2.20
2022-09-11T07:11:03.667Z,2.13
2022-09-11T07:13:38.499Z,2.10
2022-09-11T07:16:08.162Z,2.00
2022-09-11T07:18:39.554Z,1.85
2022-09-11T07:21:11.410Z,2.15
2022-09-11T07:23:39.691Z,1.80
2022-09-11T07:26:08.997Z,1.90
2022-09-11T07:28:37.814Z,1.73
2022-09-11T07:31:10.777Z,1.85
2022-09-11T07:33:39.161Z,1.83
2022-09-11T07:36:13.428Z,2.42
2022-09-11T07:38:41.662Z,1.88
2022-09-11T07:41:09.497Z,1.70
2022-09-11T07:43:37.418Z,1.95
2022-09-11T07:46:05.374Z,1.67
2022-09-11T07:48:32.802Z,1.90
2022-09-11T07:51:04.520Z,1.83
2022-09-11T07:53:34.946Z,1.75
2022-09-11T07:56:03.770Z,1.77
2022-09-11T07:58:38.183Z,1.90
2022-09-11T08:01:09.412Z,2.25
2022-09-11T08:03:38.248Z,1.80
2022-09-11T08:06:08.004Z,1.40
2022-09-11T08:08:35.743Z,1.67
2022-09-11T08:11:04.052Z,1.83
2022-09-11T08:13:31.436Z,1.70
2022-09-11T08:15:58.668Z,1.80
2022-09-11T08:18:25.909Z,1.85
2022-09-11T08:20:53.261Z,1.88
2022-09-11T08:23:21.420Z,2.17
2022-09-11T08:25:48.637Z,2.17
2022-09-11T08:28:15.893Z,1.88
2022-09-11T08:30:43.163Z,1.75
2022-09-11T08:33:12.748Z,1.63
2022-09-11T08:35:39.994Z,1.90
2022-09-11T08:38:07.211Z,1.60
2022-09-11T08:40:39.007Z,1.50
2022-09-11T08:43:06.430Z,2.13
2022-09-11T08:45:36.857Z,1.50
2022-09-11T08:48:07.104Z,1.48
2022-09-11T08:50:42.232Z,2.07
2022-09-11T08:53:19.432Z,1.45
2022-09-11T08:55:46.663Z,2.10
2022-09-11T08:58:29.299Z,1.80
2022-09-11T09:01:05.355Z,1.70
2022-09-11T09:03:51.514Z,1.80
2022-09-11T09:06:34.146Z,1.73
2022-09-11T09:09:06.760Z,1.88
2022-09-11T09:11:48.820Z,1.73
2022-09-11T09:14:16.028Z,2.05
2022-09-11T09:17:12.861Z,1.88
2022-09-11T09:19:40.108Z,1.52
2022-09-11T09:22:14.741Z,1.65
2022-09-11T09:24:53.709Z,1.52
2022-09-11T09:27:31.244Z,1.80
2022-09-11T09:29:59.977Z,1.92
2022-09-11T09:32:32.306Z,1.50
2022-09-11T09:35:01.976Z,1.50
2022-09-11T09:37:29.829Z,1.65
2022-09-11T09:39:57.432Z,1.80
2022-09-11T09:42:24.765Z,1.52
2022-09-11T09:45:02.381Z,1.70
2022-09-11T09:47:29.928Z,1.60
2022-09-11T09:50:01.324Z,1.88
2022-09-11T09:52:33.749Z,1.90
2022-09-11T09:55:02.504Z,1.85
2022-09-11T09:57:34.400Z,1.65
2022-09-11T10:00:10.919Z,1.83
2022-09-11T10:02:42.943Z,1.33
2022-09-11T10:05:29.885Z,1.60
2022-09-11T10:08:07.183Z,1.75
2022-09-11T10:10:38.351Z,1.95
2022-09-11T10:13:19.114Z,1.80
2022-09-11T10:18:22.861Z,1.75
2022-09-11T10:20:51.787Z,1.80
2022-09-11T10:23:24.076Z,1.92
2022-09-11T10:25:52.067Z,1.75
2022-09-11T10:28:23.194Z,1.70
2022-09-11T10:33:23.871Z,2.00
2022-09-11T10:35:55.152Z,2.03
2022-09-11T10:38:44.980Z,1.83
2022-09-11T10:41:19.357Z,1.70
2022-09-11T10:44:00.536Z,1.65
2022-09-11T10:49:12.329Z,1.65
2022-09-11T10:51:44.316Z,1.70
2022-09-11T10:54:17.458Z,1.83
2022-09-11T10:57:00.317Z,1.85
2022-09-11T10:59:46.104Z,1.85
2022-09-11T11:02:39.983Z,1.95
2022-09-11T11:05:17.186Z,1.92
2022-09-11T11:07:45.247Z,2.45
2022-09-11T11:10:32.520Z,1.70
2022-09-11T11:13:16.164Z,1.83
2022-09-11T11:16:10.218Z,1.77
2022-09-11T11:18:56.645Z,1.75
2022-09-11T11:21:42.412Z,1.80
2022-09-11T11:24:28.301Z,1.90
2022-09-11T11:27:07.650Z,1.70
2022-09-11T11:29:41.581Z,1.77
2022-09-11T11:32:14.962Z,1.90
2022-09-11T11:34:46.988Z,2.15
2022-09-11T11:37:20.653Z,2.10
2022-09-11T11:39:47.859Z,1.83
2022-09-11T11:42:22.073Z,2.00
2022-09-11T11:44:58.564Z,1.92
2022-09-11T11:47:28.092Z,1.90
2022-09-11T11:50:04.579Z,1.92
2022-09-11T11:52:31.960Z,2.20
2022-09-11T11:55:02.482Z,2.08
2022-09-11T11:57:33.711Z,1.85
2022-09-11T12:02:35.867Z,1.60
2022-09-11T12:05:08.722Z,2.10
2022-09-11T12:07:37.422Z,1.83
2022-09-11T12:10:06.162Z,2.25
2022-09-11T12:12:34.808Z,1.92
2022-09-11T12:15:20.092Z,1.90
2022-09-11T12:17:50.041Z,1.60
2022-09-11T12:20:31.794Z,2.00
2022-09-11T12:23:00.746Z,1.85
2022-09-11T12:25:31.214Z,1.80
2022-09-11T12:28:22.312Z,1.77
2022-09-11T12:31:02.024Z,2.05
2022-09-11T12:33:45.047Z,1.70
2022-09-11T12:36:25.168Z,1.70
2022-09-11T12:39:18.102Z,2.15
2022-09-11T12:41:46.013Z,2.08
2022-09-11T12:44:33.011Z,2.22
2022-09-11T12:47:00.306Z,2.30
2022-09-11T12:49:28.233Z,1.67
2022-09-11T12:51:57.119Z,1.92
2022-09-11T12:54:27.181Z,2.00
2022-09-11T12:57:05.434Z,1.90
2022-09-11T12:59:38.729Z,1.83
2022-09-11T13:02:17.982Z,1.58
2022-09-11T13:04:46.460Z,2.20
2022-09-11T13:07:24.311Z,2.25
2022-09-11T13:09:52.709Z,2.50
2022-09-11T13:12:26.066Z,2.20
2022-09-11T13:14:53.984Z,2.10
2022-09-11T13:17:26.020Z,2.20
2022-09-11T13:19:54.763Z,1.90
2022-09-11T13:22:26.675Z,1.95
2022-09-11T13:25:05.553Z,2.20
2022-09-11T13:27:37.560Z,2.40
2022-09-11T13:30:06.257Z,2.40
2022-09-11T13:32:33.717Z,2.25
2022-09-11T13:35:04.491Z,2.05
2022-09-11T13:37:52.641Z,2.10
2022-09-11T13:40:25.204Z,2.38
2022-09-11T13:42:52.589Z,2.70
2022-09-11T13:45:22.382Z,3.05
2022-09-11T13:47:49.790Z,2.90
2022-09-11T13:50:18.515Z,2.63
2022-09-11T13:52:46.594Z,3.00
2022-09-11T13:55:27.176Z,2.47
2022-09-11T13:57:58.801Z,2.53
2022-09-11T14:00:45.950Z,2.78
2022-09-11T14:03:18.298Z,2.50
2022-09-11T14:05:49.577Z,2.83
2022-09-11T14:08:24.813Z,3.92
2022-09-11T14:10:54.226Z,2.53
2022-09-11T14:13:33.451Z,2.35
2022-09-11T14:16:08.798Z,2.03
2022-09-11T14:18:46.777Z,2.30
2022-09-11T14:21:15.607Z,2.05
2022-09-11T14:23:48.435Z,1.85
2022-09-11T14:26:17.411Z,2.15
2022-09-11T14:28:47.054Z,2.50
2022-09-11T14:31:14.923Z,2.65
2022-09-11T14:33:42.457Z,3.20
2022-09-11T14:36:19.123Z,3.50
2022-09-11T14:38:47.712Z,2.30
2022-09-11T14:41:15.033Z,2.00
2022-09-11T14:43:44.088Z,2.33
2022-09-11T14:46:13.888Z,2.20
2022-09-11T14:48:43.217Z,2.00
2022-09-11T14:51:13.615Z,2.10
2022-09-11T14:53:43.504Z,2.05
2022-09-11T14:56:11.375Z,2.08
2022-09-11T14:58:38.727Z,2.05
2022-09-11T15:01:06.025Z,1.80
2022-09-11T15:03:33.327Z,1.90
2022-09-11T15:06:00.608Z,1.88
2022-09-11T15:08:27.926Z,1.98
2022-09-11T15:10:55.207Z,1.70
2022-09-11T15:13:22.995Z,2.03
2022-09-11T15:15:50.345Z,2.13
2022-09-11T15:18:18.234Z,2.10
2022-09-11T15:20:45.617Z,2.33
2022-09-11T15:23:12.854Z,1.95
2022-09-11T15:25:41.028Z,1.98
2022-09-11T15:28:10.280Z,2.10
2022-09-11T15:30:38.703Z,2.10
2022-09-11T15:33:06.077Z,2.53
2022-09-11T15:35:33.354Z,2.20
2022-09-11T15:38:00.780Z,2.40
2022-09-11T15:40:28.115Z,2.30
2022-09-11T15:42:57.100Z,2.40
2022-09-11T15:45:24.435Z,2.60
2022-09-11T15:47:51.738Z,2.50
2022-09-11T15:50:24.655Z,2.40
2022-09-11T15:52:51.960Z,2.67
2022-09-11T15:55:19.195Z,3.17
2022-09-11T15:57:46.417Z,2.70
2022-09-11T16:00:14.665Z,2.97
2022-09-11T16:02:41.997Z,2.90
2022-09-11T16:05:09.364Z,2.33
2022-09-11T16:07:36.685Z,3.10
2022-09-11T16:10:04.141Z,3.22
2022-09-11T16:12:31.481Z,2.78
2022-09-11T16:14:58.777Z,3.10
2022-09-11T16:17:31.175Z,2.42
2022-09-11T16:19:58.716Z,2.95
2022-09-11T16:22:26.793Z,2.85
2022-09-11T16:24:54.344Z,3.10
2022-09-11T16:27:22.432Z,3.00
2022-09-11T16:32:39.637Z,3.40
2022-09-11T16:35:14.278Z,3.03
2022-09-11T16:37:41.717Z,3.60
2022-09-11T16:40:09.792Z,3.05
2022-09-11T16:42:37.064Z,2.90
2022-09-11T16:45:04.425Z,3.17
2022-09-11T16:47:32.492Z,3.13
2022-09-11T16:50:08.122Z,3.22
2022-09-11T16:52:36.284Z,3.13
2022-09-11T16:55:03.679Z,3.03
2022-09-11T16:57:31.175Z,3.50
2022-09-11T16:59:58.412Z,3.75
2022-09-11T17:02:26.549Z,3.75
2022-09-11T17:04:53.779Z,3.28
2022-09-11T17:07:21.049Z,3.17
2022-09-11T17:09:49.484Z,3.33
2022-09-11T17:12:19.622Z,2.83
2022-09-11T17:14:46.897Z,2.95
2022-09-11T17:17:14.260Z,3.55
2022-09-11T17:19:41.915Z,3.20
2022-09-11T17:22:10.388Z,2.90
2022-09-11T17:24:38.796Z,3.20
2022-09-11T17:27:06.164Z,3.28
2022-09-11T17:29:33.419Z,3.20
2022-09-11T17:32:26.087Z,3.20
2022-09-11T17:34:48.062Z,3.90
2022-09-11T17:37:15.826Z,4.53
2022-09-11T17:39:43.461Z,4.72
2022-09-11T17:42:13.132Z,4.15
2022-09-11T17:44:41.560Z,4.10
2022-09-11T17:47:09.080Z,4.10
2022-09-11T17:49:36.430Z,3.53
2022-09-11T17:52:03.783Z,3.30
2022-09-11T17:54:31.985Z,3.55
2022-09-11T17:56:59.250Z,3.97
2022-09-11T17:59:26.508Z,3.85
2022-09-11T18:01:53.954Z,3.92
2022-09-11T18:04:22.507Z,4.10
2022-09-11T18:06:51.168Z,2.75
2022-09-11T18:09:19.884Z,2.35
2022-09-11T18:11:48.666Z,2.88
2022-09-11T18:14:16.843Z,2.63
2022-09-11T18:16:45.247Z,2.65
2022-09-11T18:19:12.837Z,3.10
2022-09-11T18:21:40.082Z,3.00
2022-09-11T18:24:09.891Z,2.30
2022-09-11T18:26:40.175Z,2.33
2022-09-11T18:29:12.005Z,2.72
2022-09-11T18:31:40.630Z,2.40
2022-09-11T18:34:08.064Z,2.42
2022-09-11T18:36:35.367Z,2.45
2022-09-11T18:39:03.125Z,2.92
2022-09-11T18:41:31.778Z,3.22
2022-09-11T18:44:00.503Z,2.35
2022-09-11T18:46:28.380Z,2.10
2022-09-11T18:48:56.065Z,2.05
2022-09-11T18:51:23.553Z,2.28
2022-09-11T18:53:54.454Z,2.65
2022-09-11T18:56:22.886Z,2.58
2022-09-11T18:58:52.295Z,2.60
2022-09-11T19:01:22.824Z,3.03
2022-09-11T19:03:51.792Z,3.28
2022-09-11T19:06:20.258Z,3.75
2022-09-11T19:08:48.253Z,3.00
2022-09-11T19:11:16.989Z,3.08
2022-09-11T19:13:45.057Z,3.00
2022-09-11T19:16:13.023Z,3.25
2022-09-11T19:18:40.332Z,2.92
2022-09-11T19:21:10.342Z,3.08
2022-09-11T19:23:39.214Z,3.13
2022-09-11T19:26:12.150Z,3.05
2022-09-11T19:28:41.202Z,3.20
2022-09-11T19:31:08.986Z,3.42
2022-09-11T19:33:37.256Z,3.40
2022-09-11T19:36:05.790Z,3.38
2022-09-11T19:38:34.372Z,3.47
2022-09-11T19:41:02.079Z,3.30
2022-09-11T19:43:31.230Z,3.40
2022-09-11T19:46:09.263Z,3.35
2022-09-11T19:48:40.251Z,3.47
2022-09-11T19:51:27.365Z,3.05
2022-09-11T19:54:00.285Z,3.17
2022-09-11T19:56:28.293Z,3.20
2022-09-11T19:58:55.991Z,2.83
2022-09-11T20:01:24.218Z,3.25
2022-09-11T20:03:53.212Z,2.75
2022-09-11T20:06:22.001Z,3.40
2022-09-11T20:08:50.015Z,3.00
2022-09-11T20:11:19.094Z,3.10
2022-09-11T20:13:46.309Z,3.10
2022-09-11T20:16:15.412Z,3.30
2022-09-11T20:18:43.557Z,3.80
2022-09-11T20:21:12.187Z,3.13
2022-09-11T20:23:40.185Z,3.28
2022-09-11T20:26:08.768Z,3.63
2022-09-11T20:28:36.017Z,2.97
2022-09-11T20:31:03.333Z,3.47
2022-09-11T20:33:30.549Z,3.47
2022-09-11T20:35:58.149Z,3.55
2022-09-11T20:38:25.445Z,3.58
2022-09-11T20:40:52.657Z,3.45
2022-09-11T20:43:19.873Z,3.45
2022-09-11T20:45:50.506Z,3.55
2022-09-11T20:48:18.962Z,4.15
2022-09-11T20:50:46.259Z,3.38
2022-09-11T20:53:14.272Z,3.55
2022-09-11T20:55:41.673Z,3.47
2022-09-11T20:58:08.883Z,3.33
2022-09-11T21:00:38.343Z,3.97
2022-09-11T21:03:05.587Z,3.85
2022-09-11T21:05:32.814Z,3.45
2022-09-11T21:08:00.081Z,3.38
2022-09-11T21:10:28.528Z,3.30
2022-09-11T21:12:55.969Z,3.20
2022-09-11T21:15:23.223Z,3.38
2022-09-11T21:17:50.766Z,3.63
2022-09-11T21:20:18.380Z,3.65
2022-09-11T21:22:45.689Z,3.45
2022-09-11T21:25:12.937Z,3.20
2022-09-11T21:27:40.170Z,3.55
2022-09-11T21:30:07.706Z,3.50
2022-09-11T21:32:34.940Z,3.30
2022-09-11T21:35:02.169Z,3.50
2022-09-11T21:37:29.427Z,3.25
2022-09-11T21:39:56.720Z,3.28
2022-09-11T21:42:23.984Z,3.10
2022-09-11T21:44:51.393Z,3.42
2022-09-11T21:47:18.846Z,3.47
2022-09-11T21:49:46.101Z,3.28
2022-09-11T21:52:13.352Z,3.25
2022-09-11T21:54:40.611Z,3.67
2022-09-11T21:57:07.895Z,3.63
2022-09-11T21:59:35.126Z,3.15
2022-09-11T22:02:02.422Z,3.28
2022-09-11T22:04:29.716Z,3.42
2022-09-11T22:06:56.963Z,3.78
2022-09-11T22:09:24.220Z,3.70
2022-09-11T22:11:51.482Z,3.67
2022-09-11T22:14:20.391Z,3.72
2022-09-11T22:16:47.876Z,3.70
2022-09-11T22:19:15.127Z,3.70
2022-09-11T22:21:43.002Z,3.40
2022-09-11T22:24:10.228Z,3.50
2022-09-11T22:26:37.537Z,3.55
2022-09-11T22:29:04.777Z,3.35
2022-09-11T22:31:32.085Z,3.10
2022-09-11T22:33:59.341Z,3.60
2022-09-11T22:36:27.725Z,3.45
2022-09-11T22:38:55.400Z,3.45
2022-09-11T22:41:23.057Z,3.00
2022-09-11T22:43:50.313Z,3.63
2022-09-11T22:46:19.398Z,3.13
2022-09-11T22:48:46.705Z,2.85
2022-09-11T22:51:13.983Z,3.40
2022-09-11T22:53:41.370Z,3.22
2022-09-11T22:56:09.469Z,3.47
2022-09-11T22:58:38.533Z,3.50
2022-09-11T23:01:06.317Z,3.60
2022-09-11T23:03:33.687Z,3.10
2022-09-11T23:06:19.921Z,3.30
2022-09-11T23:08:47.763Z,3.38
2022-09-11T23:11:16.178Z,3.60
2022-09-11T23:13:43.836Z,3.03
2022-09-11T23:16:13.285Z,3.28
2022-09-11T23:18:40.574Z,2.95
2022-09-11T23:21:07.980Z,3.00
2022-09-11T23:23:40.926Z,3.00
2022-09-11T23:26:08.734Z,2.90
2022-09-11T23:28:35.973Z,2.88
2022-09-11T23:31:03.663Z,2.92
2022-09-11T23:33:31.297Z,3.00
2022-09-11T23:35:58.504Z,3.08
2022-09-11T23:38:25.779Z,2.92
2022-09-11T23:40:53.372Z,2.90
2022-09-11T23:43:20.646Z,2.58
2022-09-11T23:45:47.933Z,2.63
2022-09-11T23:48:15.245Z,2.67
2022-09-11T23:50:42.498Z,3.28
2022-09-11T23:53:09.814Z,2.90
2022-09-11T23:55:40.559Z,2.70
2022-09-11T23:58:09.470Z,2.53
